メインページ
METAR-TAF:

METAR-TAF

空港 :

カシディー国際空港

キリスィマスィ島, キリバス

緯度: 01-59N, 経度: 157-29W, 海抜: 3m

現時点の気象観測

当レポートは35分前の00:00(UTC)に作成
の風 7kt
気温 31°C
湿度 66%
気圧 1006 hPa
視程10km以上
高度2000ftの雲はほとんどない

METAR: PLCH 210000Z 10007KT 9999 FEW020 31/24 Q1006

時間: 14:35 (00:35 UTC)

予報

当レポートは1時間23分前の23:12(UTC)に作成
予報は21日の 00時(UTC)から 21日の 24時(UTC)まで有効
東/南東の風 10kt
視程10km以上
高度2000ftの雲はほとんどない
確率 30% :
21日の 12時(UTC)から 21日の 24時(UTC)まで一時的に
視程: 5000m
高度1500ftの千切れ雲あり
にわか雨

TAF: PLCH 202312Z 2100/2124 12010KT 9999 FEW020 PROB30 TEMPO 2112/2124 5000 SHRA BKN015

4,000以上の空港の気象観測と天気予報(METAR報とTAF報)

利用可能な観測所は地図上に黄色い丸と赤い丸で示す。

丸の上にカーソルを重ねると観測所名を参照できる。

次にクリックすると気象観測と天気予報を参照できる。

マップの切り替え:黒色「×」印の緑ボタンをクリックして拡大、「-」印の緑ボタンをクリックして縮小、緑色の三角印をクリックして隣りの地図に切り替え


METAR-TAF: